createdAt,value
2023-01-13T00:02:26.294Z,2.01
2023-01-13T00:05:13.419Z,2.01
2023-01-13T00:07:53.185Z,2.00
2023-01-13T00:10:41.173Z,1.99
2023-01-13T00:13:14.284Z,1.99
2023-01-13T00:16:11.284Z,1.98
2023-01-13T00:18:54.490Z,1.93
2023-01-13T00:21:42.177Z,1.89
2023-01-13T00:24:24.228Z,1.87
2023-01-13T00:27:18.243Z,1.84
2023-01-13T00:30:05.182Z,1.81
2023-01-13T00:32:45.196Z,1.79
2023-01-13T00:35:32.180Z,1.76
2023-01-13T00:38:05.281Z,1.73
2023-01-13T00:40:54.497Z,1.69
2023-01-13T00:43:27.312Z,1.63
2023-01-13T00:46:18.279Z,1.61
2023-01-13T00:48:59.181Z,1.59
2023-01-13T00:51:53.197Z,1.59
2023-01-13T00:54:47.179Z,1.60
2023-01-13T00:57:36.256Z,1.57
2023-01-13T01:00:10.276Z,1.54
2023-01-13T01:02:57.193Z,1.54
2023-01-13T01:05:37.185Z,1.55
2023-01-13T01:08:26.757Z,1.53
2023-01-13T01:11:15.205Z,1.55
2023-01-13T01:14:04.255Z,1.56
2023-01-13T01:16:39.482Z,1.57
2023-01-13T01:19:26.258Z,1.58
2023-01-13T01:21:59.310Z,1.61
2023-01-13T01:24:46.239Z,1.62
2023-01-13T01:27:28.254Z,1.62
2023-01-13T01:30:24.248Z,1.63
2023-01-13T01:33:12.230Z,1.65
2023-01-13T01:35:46.305Z,1.67
2023-01-13T01:38:42.517Z,1.69
2023-01-13T01:41:38.235Z,1.70
2023-01-13T01:44:50.745Z,1.70
2023-01-13T01:47:25.291Z,1.71
2023-01-13T01:50:12.235Z,1.72
2023-01-13T01:52:51.353Z,1.69
2023-01-13T01:55:41.212Z,1.64
2023-01-13T01:58:27.213Z,1.64
2023-01-13T02:01:22.377Z,1.64
2023-01-13T02:04:24.247Z,1.62
2023-01-13T02:07:11.208Z,1.60
2023-01-13T02:09:44.317Z,1.61
2023-01-13T02:12:41.199Z,1.58
2023-01-13T02:15:32.244Z,1.59
2023-01-13T02:18:45.194Z,1.55
2023-01-13T02:21:49.327Z,1.50
2023-01-13T02:25:03.229Z,1.50
2023-01-13T02:28:12.241Z,1.50
2023-01-13T02:31:32.279Z,1.47
2023-01-13T02:34:32.231Z,1.44
2023-01-13T02:37:16.319Z,1.44
2023-01-13T02:40:26.245Z,1.43
2023-01-13T02:43:37.214Z,1.41
2023-01-13T02:47:00.262Z,1.39
2023-01-13T02:49:56.247Z,1.41
2023-01-13T02:52:48.255Z,1.43
2023-01-13T02:55:50.238Z,1.44
2023-01-13T02:58:39.223Z,1.44
2023-01-13T03:01:12.433Z,1.42
2023-01-13T03:03:59.223Z,1.44
2023-01-13T03:07:09.235Z,1.44
2023-01-13T03:10:18.288Z,1.40
2023-01-13T03:13:14.222Z,1.39
2023-01-13T03:16:04.238Z,1.37
2023-01-13T03:19:35.243Z,1.32
2023-01-13T03:22:30.243Z,1.29
2023-01-13T03:25:32.413Z,1.24
2023-01-13T03:28:33.282Z,1.19
2023-01-13T03:31:13.354Z,1.14
2023-01-13T03:34:20.248Z,1.13
2023-01-13T03:37:04.240Z,1.10
2023-01-13T03:40:04.345Z,1.12
2023-01-13T03:43:15.275Z,1.14
2023-01-13T03:45:57.392Z,1.12
2023-01-13T03:48:54.257Z,1.10
2023-01-13T03:51:51.082Z,1.10
2023-01-13T03:54:26.334Z,1.11
2023-01-13T03:57:18.242Z,1.15
2023-01-13T04:00:03.270Z,1.16
2023-01-13T04:03:08.236Z,1.14
2023-01-13T04:06:09.272Z,1.17
2023-01-13T04:09:02.243Z,1.19
2023-01-13T04:11:42.395Z,1.19
2023-01-13T04:14:32.264Z,1.20
2023-01-13T04:17:12.287Z,1.19
2023-01-13T04:19:59.272Z,1.19
2023-01-13T04:22:39.320Z,1.18
2023-01-13T04:25:26.307Z,1.21
2023-01-13T04:28:06.261Z,1.25
2023-01-13T04:30:53.372Z,1.29
2023-01-13T04:33:26.393Z,1.29
2023-01-13T04:36:13.268Z,1.31
2023-01-13T04:38:46.439Z,1.34
2023-01-13T04:41:56.277Z,1.36
2023-01-13T04:44:30.514Z,1.37
2023-01-13T04:47:18.299Z,1.42
2023-01-13T04:49:51.367Z,1.47
2023-01-13T04:52:38.315Z,1.53
2023-01-13T04:55:19.275Z,1.54
2023-01-13T04:58:22.302Z,1.55
2023-01-13T05:01:10.354Z,1.58
2023-01-13T05:03:43.415Z,1.62
2023-01-13T05:06:30.302Z,1.63
2023-01-13T05:09:03.364Z,1.65
2023-01-13T05:12:09.281Z,1.65
2023-01-13T05:15:07.284Z,1.67
2023-01-13T05:18:03.312Z,1.70
2023-01-13T05:20:50.319Z,1.73
2023-01-13T05:23:41.876Z,1.76
2023-01-13T05:26:31.319Z,1.77
2023-01-13T05:29:04.465Z,1.79
2023-01-13T05:31:53.275Z,1.80
2023-01-13T05:34:33.317Z,1.83
2023-01-13T05:37:27.349Z,1.85
2023-01-13T05:40:41.304Z,1.86
2023-01-13T05:43:33.311Z,1.87
2023-01-13T05:46:16.324Z,1.88
2023-01-13T05:49:13.317Z,1.93
2023-01-13T05:52:01.317Z,1.94
2023-01-13T05:54:43.275Z,1.95
2023-01-13T05:57:30.427Z,1.96
2023-01-13T06:00:03.360Z,1.98
2023-01-13T06:02:51.390Z,2.00
2023-01-13T06:05:33.327Z,2.03
2023-01-13T06:08:28.311Z,2.05
2023-01-13T06:11:15.315Z,2.08
2023-01-13T06:13:55.282Z,2.10
2023-01-13T06:16:49.325Z,2.11
2023-01-13T06:19:43.332Z,2.12
2023-01-13T06:22:35.315Z,2.14
2023-01-13T06:25:08.455Z,2.15
2023-01-13T06:27:57.319Z,2.18
2023-01-13T06:30:37.322Z,2.20
2023-01-13T06:33:41.315Z,2.22
2023-01-13T06:36:38.345Z,2.24
2023-01-13T06:39:11.455Z,2.26
2023-01-13T06:42:19.319Z,2.28
2023-01-13T06:44:52.398Z,2.27
2023-01-13T06:47:39.323Z,2.29
2023-01-13T06:50:12.447Z,2.29
2023-01-13T06:52:59.320Z,2.33
2023-01-13T06:55:32.408Z,2.37
2023-01-13T06:58:20.316Z,2.41
2023-01-13T07:00:53.710Z,2.45
2023-01-13T07:03:40.320Z,2.49
2023-01-13T07:06:21.332Z,2.53
2023-01-13T07:09:15.319Z,2.56
2023-01-13T07:12:02.340Z,2.59
2023-01-13T07:14:54.211Z,2.61
2023-01-13T07:17:41.326Z,2.66
2023-01-13T07:20:15.399Z,2.70
2023-01-13T07:23:03.323Z,2.74
2023-01-13T07:25:36.412Z,2.77
2023-01-13T07:28:23.319Z,2.80
2023-01-13T07:31:03.337Z,2.82
2023-01-13T07:34:00.030Z,2.84
2023-01-13T07:36:46.312Z,2.87
2023-01-13T07:39:19.452Z,2.89
2023-01-13T07:42:24.312Z,2.91
2023-01-13T07:45:04.360Z,2.93
2023-01-13T07:47:58.308Z,2.94
2023-01-13T07:50:45.335Z,2.98
2023-01-13T07:53:19.430Z,2.99
2023-01-13T07:56:09.683Z,3.03
2023-01-13T07:58:53.427Z,3.07
2023-01-13T08:01:47.552Z,3.11
2023-01-13T08:04:34.324Z,3.12
2023-01-13T08:07:07.470Z,3.15
2023-01-13T08:09:54.310Z,3.21
2023-01-13T08:12:52.953Z,3.25
2023-01-13T08:15:44.320Z,3.30
2023-01-13T08:18:27.366Z,3.34
2023-01-13T08:21:24.334Z,3.37
2023-01-13T08:24:18.338Z,3.40
2023-01-13T08:27:12.347Z,3.43
2023-01-13T08:30:06.360Z,3.46
2023-01-13T08:33:02.352Z,3.50
2023-01-13T08:35:59.374Z,3.53
2023-01-13T08:38:54.337Z,3.54
2023-01-13T08:41:59.386Z,3.59
2023-01-13T08:44:41.385Z,3.60
2023-01-13T08:47:37.661Z,3.62
2023-01-13T08:50:25.474Z,3.63
2023-01-13T08:52:58.551Z,3.62
2023-01-13T08:55:46.316Z,3.60
2023-01-13T08:58:26.363Z,3.60
2023-01-13T09:01:15.524Z,3.62
2023-01-13T09:03:48.449Z,3.62
2023-01-13T09:06:35.389Z,3.61
2023-01-13T09:09:08.437Z,3.62
2023-01-13T09:12:16.392Z,3.63
2023-01-13T09:14:56.369Z,3.65
2023-01-13T09:17:50.385Z,3.65
2023-01-13T09:20:44.359Z,3.67
2023-01-13T09:23:31.439Z,3.68
2023-01-13T09:26:11.371Z,3.66
2023-01-13T09:29:07.676Z,3.70
2023-01-13T09:31:54.368Z,3.68
2023-01-13T09:34:52.396Z,3.71
2023-01-13T09:37:49.370Z,3.74
2023-01-13T09:40:36.351Z,3.74
2023-01-13T09:43:42.130Z,3.74
2023-01-13T09:46:51.367Z,3.79
2023-01-13T09:49:44.377Z,3.76
2023-01-13T09:52:34.369Z,3.78
2023-01-13T09:55:22.353Z,3.79
2023-01-13T09:58:18.358Z,3.79
2023-01-13T10:01:00.504Z,3.80
2023-01-13T10:03:47.431Z,3.78
2023-01-13T10:06:45.391Z,3.78
2023-01-13T10:10:09.187Z,3.83
2023-01-13T10:13:18.397Z,3.80
2023-01-13T10:16:25.402Z,3.82
2023-01-13T10:19:29.396Z,3.82
2023-01-13T10:22:26.377Z,3.85
2023-01-13T10:25:42.382Z,3.87
2023-01-13T10:28:36.393Z,3.89
2023-01-13T10:31:32.366Z,3.89
2023-01-13T10:34:19.375Z,3.96
2023-01-13T10:37:17.371Z,4.01
2023-01-13T10:40:15.390Z,4.05
2023-01-13T10:43:13.384Z,4.09
2023-01-13T10:45:46.489Z,4.11
2023-01-13T10:48:44.400Z,4.16
2023-01-13T10:51:33.369Z,4.19
2023-01-13T10:54:27.434Z,4.24
2023-01-13T10:57:33.397Z,4.28
2023-01-13T11:00:44.378Z,4.30
2023-01-13T11:03:32.374Z,4.34
2023-01-13T11:06:13.394Z,4.38
2023-01-13T11:09:09.403Z,4.38
2023-01-13T11:12:02.437Z,4.41
2023-01-13T11:14:47.492Z,4.45
2023-01-13T11:17:41.443Z,4.50
2023-01-13T11:20:40.400Z,4.53
2023-01-13T11:23:34.418Z,4.58
2023-01-13T11:26:32.434Z,4.64
2023-01-13T11:29:41.395Z,4.67
2023-01-13T11:32:37.402Z,4.69
2023-01-13T11:35:34.391Z,4.65
2023-01-13T11:38:42.405Z,4.67
2023-01-13T11:42:15.405Z,4.64
2023-01-13T11:45:28.412Z,4.64
2023-01-13T11:48:12.452Z,4.66
2023-01-13T11:51:27.410Z,4.67
2023-01-13T11:54:23.427Z,4.66
2023-01-13T11:57:18.410Z,4.71
2023-01-13T12:01:02.474Z,4.71
2023-01-13T12:03:56.407Z,4.74
2023-01-13T12:06:54.423Z,4.76
2023-01-13T12:10:03.170Z,4.74
2023-01-13T12:12:46.420Z,4.75
2023-01-13T12:15:50.436Z,4.74
2023-01-13T12:18:37.415Z,4.73
2023-01-13T12:21:13.545Z,4.74
2023-01-13T12:24:24.408Z,4.71
2023-01-13T12:27:10.477Z,4.69
2023-01-13T12:30:02.398Z,4.71
2023-01-13T12:32:49.428Z,4.70
2023-01-13T12:35:56.423Z,4.69
2023-01-13T12:38:56.434Z,4.70
2023-01-13T12:42:17.423Z,4.67
2023-01-13T12:45:18.454Z,4.64
2023-01-13T12:47:52.544Z,4.65
2023-01-13T12:50:39.426Z,4.66
2023-01-13T12:53:38.657Z,4.65
2023-01-13T12:56:45.444Z,4.64
2023-01-13T12:59:39.626Z,4.60
2023-01-13T13:02:36.459Z,4.57
2023-01-13T13:05:28.440Z,4.56
2023-01-13T13:08:34.426Z,4.52
2023-01-13T13:11:39.439Z,4.52
2023-01-13T13:14:25.447Z,4.48
2023-01-13T13:17:41.460Z,4.47
2023-01-13T13:21:04.667Z,4.41
2023-01-13T13:23:44.344Z,4.39
2023-01-13T13:26:37.455Z,4.36
2023-01-13T13:29:29.442Z,4.36
2023-01-13T13:32:23.445Z,4.35
2023-01-13T13:35:31.478Z,4.30
2023-01-13T13:39:19.483Z,4.30
2023-01-13T13:42:43.456Z,4.29
2023-01-13T13:45:57.500Z,4.30
2023-01-13T13:48:44.576Z,4.28
2023-01-13T13:51:37.850Z,4.24
2023-01-13T13:54:28.443Z,4.17
2023-01-13T13:57:01.577Z,4.16
2023-01-13T13:59:48.472Z,4.14
2023-01-13T14:02:34.565Z,4.10
2023-01-13T14:05:21.974Z,4.07
2023-01-13T14:08:01.592Z,4.06
2023-01-13T14:10:51.448Z,4.07
2023-01-13T14:13:34.447Z,4.06
2023-01-13T14:16:22.443Z,4.01
2023-01-13T14:19:02.429Z,4.02
2023-01-13T14:21:56.411Z,3.99
2023-01-13T14:24:53.430Z,3.97
2023-01-13T14:27:27.571Z,3.92
2023-01-13T14:30:19.413Z,3.82
2023-01-13T14:32:53.507Z,3.81
2023-01-13T14:35:40.408Z,3.81
2023-01-13T14:38:29.413Z,3.80
2023-01-13T14:41:34.411Z,3.79
2023-01-13T14:44:17.437Z,3.81
2023-01-13T14:47:07.390Z,3.79
2023-01-13T14:49:51.404Z,3.76
2023-01-13T14:52:44.412Z,3.75
2023-01-13T14:55:29.569Z,3.77
2023-01-13T14:58:38.413Z,3.73
2023-01-13T15:01:43.507Z,3.75
2023-01-13T15:04:45.431Z,3.75
2023-01-13T15:07:38.397Z,3.76
2023-01-13T15:10:12.502Z,3.79
2023-01-13T15:13:01.409Z,3.76
2023-01-13T15:15:44.501Z,3.78
2023-01-13T15:18:31.397Z,3.75
2023-01-13T15:21:11.392Z,3.75
2023-01-13T15:24:05.407Z,3.76
2023-01-13T15:26:52.417Z,3.78
2023-01-13T15:29:26.552Z,3.78
2023-01-13T15:32:25.413Z,3.78
2023-01-13T15:34:58.536Z,3.79
2023-01-13T15:37:45.423Z,3.76
2023-01-13T15:40:22.516Z,3.79
2023-01-13T15:43:27.458Z,3.78
2023-01-13T15:46:19.237Z,3.77
2023-01-13T15:49:21.418Z,3.77
2023-01-13T15:51:55.515Z,3.76
2023-01-13T15:54:42.418Z,3.76
2023-01-13T15:57:46.575Z,3.73
2023-01-13T16:00:33.437Z,3.72
2023-01-13T16:03:13.489Z,3.71
2023-01-13T16:06:07.412Z,3.71
2023-01-13T16:09:03.543Z,3.71
2023-01-13T16:11:50.426Z,3.72
2023-01-13T16:14:23.575Z,3.72
2023-01-13T16:17:19.440Z,3.71
2023-01-13T16:19:53.575Z,3.71
2023-01-13T16:22:40.447Z,3.72
2023-01-13T16:25:21.440Z,3.72
2023-01-13T16:28:15.456Z,3.72
2023-01-13T16:31:02.627Z,3.72
2023-01-13T16:33:42.479Z,3.73
2023-01-13T16:36:36.480Z,3.73
2023-01-13T16:39:35.507Z,3.71
2023-01-13T16:42:29.507Z,3.72
2023-01-13T16:45:23.502Z,3.70
2023-01-13T16:48:10.511Z,3.71
2023-01-13T16:50:52.512Z,3.72
2023-01-13T16:53:46.514Z,3.71
2023-01-13T16:56:46.501Z,3.73
2023-01-13T16:59:40.513Z,3.71
2023-01-13T17:02:34.532Z,3.70
2023-01-13T17:05:22.507Z,3.68
2023-01-13T17:07:57.069Z,3.66
2023-01-13T17:10:43.500Z,3.65
2023-01-13T17:13:17.416Z,3.64
2023-01-13T17:16:04.548Z,3.65
2023-01-13T17:18:44.551Z,3.65
2023-01-13T17:21:31.555Z,3.65
2023-01-13T17:24:08.101Z,3.65
2023-01-13T17:26:56.539Z,3.65
2023-01-13T17:29:37.539Z,3.64
2023-01-13T17:32:26.537Z,3.64
2023-01-13T17:35:01.648Z,3.64
2023-01-13T17:37:48.549Z,3.63
2023-01-13T17:40:21.722Z,3.63
2023-01-13T17:43:08.537Z,3.63
2023-01-13T17:45:41.866Z,3.60
2023-01-13T17:48:28.568Z,3.53
2023-01-13T17:51:01.674Z,3.49
2023-01-13T17:53:50.536Z,3.45
2023-01-13T17:56:31.527Z,3.44
2023-01-13T17:59:19.561Z,3.45
2023-01-13T18:01:52.796Z,3.43
2023-01-13T18:04:39.540Z,3.43
2023-01-13T18:07:12.657Z,3.43
2023-01-13T18:09:59.533Z,3.41
2023-01-13T18:12:34.839Z,3.41
2023-01-13T18:15:21.546Z,3.41
2023-01-13T18:17:54.647Z,3.41
2023-01-13T18:20:59.548Z,3.40
2023-01-13T18:23:51.206Z,3.39
2023-01-13T18:26:56.550Z,3.39
2023-01-13T18:29:36.549Z,3.37
2023-01-13T18:32:16.569Z,3.35
2023-01-13T18:35:05.288Z,3.36
2023-01-13T18:37:40.450Z,3.35
2023-01-13T18:40:27.555Z,3.34
2023-01-13T18:43:00.632Z,3.33
2023-01-13T18:45:47.570Z,3.31
2023-01-13T18:48:20.646Z,3.30
2023-01-13T18:51:07.578Z,3.28
2023-01-13T18:53:40.661Z,3.28
2023-01-13T18:56:28.565Z,3.28
2023-01-13T18:59:02.661Z,3.29
2023-01-13T19:01:49.670Z,3.28
2023-01-13T19:04:30.564Z,3.27
2023-01-13T19:07:28.575Z,3.27
2023-01-13T19:10:04.339Z,3.24
2023-01-13T19:12:51.557Z,3.23
2023-01-13T19:15:31.626Z,3.23
2023-01-13T19:18:20.568Z,3.22
2023-01-13T19:21:00.570Z,3.20
2023-01-13T19:23:47.577Z,3.19
2023-01-13T19:26:27.567Z,3.17
2023-01-13T19:29:22.594Z,3.14
2023-01-13T19:32:09.634Z,3.13
2023-01-13T19:34:50.559Z,3.14
2023-01-13T19:37:39.566Z,3.14
2023-01-13T19:40:20.561Z,3.13
2023-01-13T19:43:32.577Z,3.14
2023-01-13T19:46:20.587Z,3.13
2023-01-13T19:48:53.674Z,3.15
2023-01-13T19:51:40.588Z,3.13
2023-01-13T19:54:13.665Z,3.13
2023-01-13T19:57:00.620Z,3.12
2023-01-13T19:59:33.911Z,3.12
2023-01-13T20:02:35.631Z,3.12
2023-01-13T20:05:10.338Z,3.11
2023-01-13T20:07:57.615Z,3.13
2023-01-13T20:10:37.586Z,3.13
2023-01-13T20:13:31.576Z,3.13
2023-01-13T20:16:25.606Z,3.13
2023-01-13T20:19:12.587Z,3.10
2023-01-13T20:21:52.601Z,3.11
2023-01-13T20:24:46.620Z,3.11
2023-01-13T20:27:33.623Z,3.13
2023-01-13T20:30:15.621Z,3.12
2023-01-13T20:33:02.595Z,3.11
2023-01-13T20:35:36.219Z,3.12
2023-01-13T20:38:22.618Z,3.14
2023-01-13T20:41:32.381Z,3.15
2023-01-13T20:44:19.614Z,3.14
2023-01-13T20:46:54.645Z,3.14
2023-01-13T20:49:44.607Z,3.14
2023-01-13T20:52:17.705Z,3.14
2023-01-13T20:55:04.631Z,3.16
2023-01-13T20:57:44.599Z,3.16
2023-01-13T21:00:31.634Z,3.18
2023-01-13T21:03:04.696Z,3.18
2023-01-13T21:05:51.579Z,3.19
2023-01-13T21:08:24.736Z,3.18
2023-01-13T21:11:12.611Z,3.20
2023-01-13T21:14:10.627Z,3.21
2023-01-13T21:17:04.611Z,3.21
2023-01-13T21:19:58.610Z,3.22
2023-01-13T21:22:47.609Z,3.23
2023-01-13T21:25:28.611Z,3.24
2023-01-13T21:28:23.677Z,3.24
2023-01-13T21:31:15.721Z,3.24
2023-01-13T21:33:48.780Z,3.23
2023-01-13T21:36:35.611Z,3.22
2023-01-13T21:39:15.643Z,3.22
2023-01-13T21:42:21.645Z,3.21
2023-01-13T21:45:20.610Z,3.22
2023-01-13T21:48:14.635Z,3.23
2023-01-13T21:51:08.627Z,3.22
2023-01-13T21:53:55.637Z,3.23
2023-01-13T21:56:36.631Z,3.23
2023-01-13T21:59:23.638Z,3.23
2023-01-13T22:02:25.214Z,3.23
2023-01-13T22:05:13.655Z,3.24
2023-01-13T22:07:47.744Z,3.24
2023-01-13T22:10:38.631Z,3.25
2023-01-13T22:13:36.640Z,3.26
2023-01-13T22:16:30.653Z,3.28
2023-01-13T22:19:17.635Z,3.27
2023-01-13T22:21:50.735Z,3.28
2023-01-13T22:24:37.666Z,3.26
2023-01-13T22:27:10.780Z,3.25
2023-01-13T22:29:58.630Z,3.24
2023-01-13T22:32:38.662Z,3.19
2023-01-13T22:35:32.633Z,3.16
2023-01-13T22:38:19.666Z,3.11
2023-01-13T22:40:52.775Z,3.10
2023-01-13T22:43:40.644Z,3.09
2023-01-13T22:46:18.835Z,3.09
2023-01-13T22:49:05.647Z,3.07
2023-01-13T22:51:48.672Z,3.06
2023-01-13T22:54:35.642Z,3.06
2023-01-13T22:57:08.786Z,3.06
2023-01-13T22:59:55.655Z,3.07
2023-01-13T23:02:35.654Z,3.08
2023-01-13T23:05:29.680Z,3.07
2023-01-13T23:08:17.661Z,3.08
2023-01-13T23:10:51.117Z,3.08
2023-01-13T23:13:37.668Z,3.06
2023-01-13T23:16:13.761Z,3.06
2023-01-13T23:19:00.687Z,3.04
2023-01-13T23:21:36.788Z,3.03
2023-01-13T23:24:23.669Z,3.02
2023-01-13T23:27:03.662Z,3.04
2023-01-13T23:29:50.693Z,3.03
2023-01-13T23:32:30.688Z,3.02
2023-01-13T23:35:17.656Z,2.99
2023-01-13T23:37:57.686Z,2.98
2023-01-13T23:40:51.676Z,2.97
2023-01-13T23:43:38.670Z,2.98
2023-01-13T23:46:16.766Z,2.99
2023-01-13T23:49:03.683Z,2.97
2023-01-13T23:51:43.735Z,2.97
2023-01-13T23:54:37.737Z,2.97
2023-01-13T23:57:31.696Z,2.96
